sensor_id;sensor_type;location;lat;lon;timestamp;temperature;humidity
24250;DHT22;12379;49.820;8.648;2023-03-23T00:01:51;15.10;95.10
24250;DHT22;12379;49.820;8.648;2023-03-23T00:04:17;15.00;95.40
24250;DHT22;12379;49.820;8.648;2023-03-23T00:06:44;15.00;95.30
24250;DHT22;12379;49.820;8.648;2023-03-23T00:09:12;15.00;95.40
24250;DHT22;12379;49.820;8.648;2023-03-23T00:11:37;15.00;95.40
24250;DHT22;12379;49.820;8.648;2023-03-23T00:14:04;15.20;95.10
24250;DHT22;12379;49.820;8.648;2023-03-23T00:16:32;15.10;95.10
24250;DHT22;12379;49.820;8.648;2023-03-23T00:19:01;15.10;95.20
24250;DHT22;12379;49.820;8.648;2023-03-23T00:21:34;15.10;95.10
24250;DHT22;12379;49.820;8.648;2023-03-23T00:26:40;15.20;94.80
24250;DHT22;12379;49.820;8.648;2023-03-23T00:29:17;15.20;95.00
24250;DHT22;12379;49.820;8.648;2023-03-23T00:31:44;15.30;94.70
24250;DHT22;12379;49.820;8.648;2023-03-23T00:34:18;15.30;94.90
24250;DHT22;12379;49.820;8.648;2023-03-23T00:36:48;15.30;94.80
24250;DHT22;12379;49.820;8.648;2023-03-23T00:39:14;15.30;94.90
24250;DHT22;12379;49.820;8.648;2023-03-23T00:41:42;15.20;95.00
24250;DHT22;12379;49.820;8.648;2023-03-23T00:44:08;15.20;95.10
24250;DHT22;12379;49.820;8.648;2023-03-23T00:46:34;15.20;95.20
24250;DHT22;12379;49.820;8.648;2023-03-23T00:48:59;15.20;95.20
24250;DHT22;12379;49.820;8.648;2023-03-23T00:51:25;15.30;95.30
24250;DHT22;12379;49.820;8.648;2023-03-23T00:53:50;15.20;95.40
24250;DHT22;12379;49.820;8.648;2023-03-23T00:56:16;15.20;95.60
24250;DHT22;12379;49.820;8.648;2023-03-23T00:58:42;15.10;95.70
24250;DHT22;12379;49.820;8.648;2023-03-23T01:01:08;15.10;95.90
24250;DHT22;12379;49.820;8.648;2023-03-23T01:03:34;15.10;96.70
24250;DHT22;12379;49.820;8.648;2023-03-23T01:06:06;15.10;96.60
24250;DHT22;12379;49.820;8.648;2023-03-23T01:08:33;15.10;96.80
24250;DHT22;12379;49.820;8.648;2023-03-23T01:11:04;15.00;97.40
24250;DHT22;12379;49.820;8.648;2023-03-23T01:13:30;14.90;98.00
24250;DHT22;12379;49.820;8.648;2023-03-23T01:15:56;14.70;98.50
24250;DHT22;12379;49.820;8.648;2023-03-23T01:18:21;14.70;98.80
24250;DHT22;12379;49.820;8.648;2023-03-23T01:20:47;14.70;98.60
24250;DHT22;12379;49.820;8.648;2023-03-23T01:23:12;14.70;98.50
24250;DHT22;12379;49.820;8.648;2023-03-23T01:25:38;14.70;98.60
24250;DHT22;12379;49.820;8.648;2023-03-23T01:28:03;14.60;98.60
24250;DHT22;12379;49.820;8.648;2023-03-23T01:30:29;14.70;98.60
24250;DHT22;12379;49.820;8.648;2023-03-23T01:32:55;14.70;98.20
24250;DHT22;12379;49.820;8.648;2023-03-23T01:35:21;14.70;98.30
24250;DHT22;12379;49.820;8.648;2023-03-23T01:37:47;14.70;98.30
24250;DHT22;12379;49.820;8.648;2023-03-23T01:40:14;14.80;98.10
24250;DHT22;12379;49.820;8.648;2023-03-23T01:42:39;14.80;98.10
24250;DHT22;12379;49.820;8.648;2023-03-23T01:45:25;14.80;97.40
24250;DHT22;12379;49.820;8.648;2023-03-23T01:47:55;14.80;97.60
24250;DHT22;12379;49.820;8.648;2023-03-23T01:50:24;14.90;97.20
24250;DHT22;12379;49.820;8.648;2023-03-23T01:52:52;14.80;97.40
24250;DHT22;12379;49.820;8.648;2023-03-23T01:55:19;14.80;97.40
24250;DHT22;12379;49.820;8.648;2023-03-23T01:57:45;14.80;97.50
24250;DHT22;12379;49.820;8.648;2023-03-23T02:00:11;14.80;97.50
24250;DHT22;12379;49.820;8.648;2023-03-23T02:02:42;14.90;97.50
24250;DHT22;12379;49.820;8.648;2023-03-23T02:05:11;14.90;97.50
24250;DHT22;12379;49.820;8.648;2023-03-23T02:07:37;14.90;97.40
24250;DHT22;12379;49.820;8.648;2023-03-23T02:10:03;14.80;97.70
24250;DHT22;12379;49.820;8.648;2023-03-23T02:12:29;14.80;97.80
24250;DHT22;12379;49.820;8.648;2023-03-23T02:14:54;14.80;98.10
24250;DHT22;12379;49.820;8.648;2023-03-23T02:28:31;14.50;99.20
24250;DHT22;12379;49.820;8.648;2023-03-23T02:31:27;14.50;99.40
24250;DHT22;12379;49.820;8.648;2023-03-23T02:34:05;14.50;99.60
24250;DHT22;12379;49.820;8.648;2023-03-23T02:36:48;14.50;99.50
24250;DHT22;12379;49.820;8.648;2023-03-23T02:39:24;14.50;99.40
24250;DHT22;12379;49.820;8.648;2023-03-23T02:41:58;14.50;99.70
24250;DHT22;12379;49.820;8.648;2023-03-23T02:44:27;14.40;99.90
24250;DHT22;12379;49.820;8.648;2023-03-23T02:46:56;14.40;99.90
24250;DHT22;12379;49.820;8.648;2023-03-23T02:49:24;14.40;99.70
24250;DHT22;12379;49.820;8.648;2023-03-23T02:51:51;14.50;99.40
24250;DHT22;12379;49.820;8.648;2023-03-23T02:54:19;14.60;99.10
24250;DHT22;12379;49.820;8.648;2023-03-23T02:56:48;14.60;99.10
24250;DHT22;12379;49.820;8.648;2023-03-23T02:59:16;14.50;98.60
24250;DHT22;12379;49.820;8.648;2023-03-23T03:04:13;14.60;99.30
24250;DHT22;12379;49.820;8.648;2023-03-23T03:11:59;14.50;99.00
24250;DHT22;12379;49.820;8.648;2023-03-23T03:14:37;14.50;99.90
24250;DHT22;12379;49.820;8.648;2023-03-23T03:17:13;14.50;99.90
24250;DHT22;12379;49.820;8.648;2023-03-23T03:19:43;14.60;99.90
24250;DHT22;12379;49.820;8.648;2023-03-23T03:22:12;14.50;99.90
24250;DHT22;12379;49.820;8.648;2023-03-23T03:24:38;14.50;99.90
24250;DHT22;12379;49.820;8.648;2023-03-23T03:27:11;14.60;99.90
24250;DHT22;12379;49.820;8.648;2023-03-23T03:29:41;14.60;99.90
24250;DHT22;12379;49.820;8.648;2023-03-23T03:32:11;14.60;99.30
24250;DHT22;12379;49.820;8.648;2023-03-23T03:34:37;14.60;99.20
24250;DHT22;12379;49.820;8.648;2023-03-23T03:37:05;14.70;98.30
24250;DHT22;12379;49.820;8.648;2023-03-23T03:39:34;14.80;98.10
24250;DHT22;12379;49.820;8.648;2023-03-23T03:42:00;14.80;98.10
24250;DHT22;12379;49.820;8.648;2023-03-23T03:44:26;14.80;98.50
24250;DHT22;12379;49.820;8.648;2023-03-23T03:46:51;14.70;99.30
24250;DHT22;12379;49.820;8.648;2023-03-23T03:49:17;14.60;99.70
24250;DHT22;12379;49.820;8.648;2023-03-23T03:51:42;14.60;99.90
24250;DHT22;12379;49.820;8.648;2023-03-23T03:54:08;14.60;99.90
24250;DHT22;12379;49.820;8.648;2023-03-23T03:56:34;14.60;99.90
24250;DHT22;12379;49.820;8.648;2023-03-23T03:59:06;14.60;99.90
24250;DHT22;12379;49.820;8.648;2023-03-23T04:01:33;14.60;99.90
24250;DHT22;12379;49.820;8.648;2023-03-23T04:03:59;14.60;99.90
24250;DHT22;12379;49.820;8.648;2023-03-23T04:06:24;14.70;99.90
24250;DHT22;12379;49.820;8.648;2023-03-23T04:08:56;14.70;99.90
24250;DHT22;12379;49.820;8.648;2023-03-23T04:11:21;14.60;99.90
24250;DHT22;12379;49.820;8.648;2023-03-23T04:13:47;14.60;99.90
24250;DHT22;12379;49.820;8.648;2023-03-23T04:16:12;14.60;99.90
24250;DHT22;12379;49.820;8.648;2023-03-23T04:18:38;14.50;99.90
24250;DHT22;12379;49.820;8.648;2023-03-23T04:21:05;14.50;99.90
24250;DHT22;12379;49.820;8.648;2023-03-23T04:23:33;14.50;99.90
24250;DHT22;12379;49.820;8.648;2023-03-23T04:26:00;14.50;99.90
24250;DHT22;12379;49.820;8.648;2023-03-23T04:28:26;14.40;99.90
24250;DHT22;12379;49.820;8.648;2023-03-23T04:30:53;14.40;99.90
24250;DHT22;12379;49.820;8.648;2023-03-23T04:33:23;14.40;99.90
24250;DHT22;12379;49.820;8.648;2023-03-23T04:35:51;14.30;99.90
24250;DHT22;12379;49.820;8.648;2023-03-23T04:38:19;14.30;99.90
24250;DHT22;12379;49.820;8.648;2023-03-23T04:40:47;14.30;99.90
24250;DHT22;12379;49.820;8.648;2023-03-23T04:43:13;14.30;99.90
24250;DHT22;12379;49.820;8.648;2023-03-23T04:45:40;14.20;99.90
24250;DHT22;12379;49.820;8.648;2023-03-23T04:48:11;14.20;99.90
24250;DHT22;12379;49.820;8.648;2023-03-23T04:50:37;14.10;99.90
24250;DHT22;12379;49.820;8.648;2023-03-23T04:53:04;14.10;99.90
24250;DHT22;12379;49.820;8.648;2023-03-23T04:55:34;14.00;99.90
24250;DHT22;12379;49.820;8.648;2023-03-23T04:58:06;14.10;99.90
24250;DHT22;12379;49.820;8.648;2023-03-23T05:00:34;14.10;99.90
24250;DHT22;12379;49.820;8.648;2023-03-23T05:03:00;14.20;99.90
24250;DHT22;12379;49.820;8.648;2023-03-23T05:05:27;14.20;99.90
24250;DHT22;12379;49.820;8.648;2023-03-23T05:07:54;14.20;99.90
24250;DHT22;12379;49.820;8.648;2023-03-23T05:10:20;14.10;99.90
24250;DHT22;12379;49.820;8.648;2023-03-23T05:12:46;14.10;99.90
24250;DHT22;12379;49.820;8.648;2023-03-23T05:15:13;14.20;99.90
24250;DHT22;12379;49.820;8.648;2023-03-23T05:17:39;14.20;99.90
24250;DHT22;12379;49.820;8.648;2023-03-23T05:20:06;14.20;99.90
24250;DHT22;12379;49.820;8.648;2023-03-23T05:22:37;14.10;99.90
24250;DHT22;12379;49.820;8.648;2023-03-23T05:25:04;14.10;99.90
24250;DHT22;12379;49.820;8.648;2023-03-23T05:27:30;14.00;99.90
24250;DHT22;12379;49.820;8.648;2023-03-23T05:29:58;14.00;99.90
24250;DHT22;12379;49.820;8.648;2023-03-23T05:32:24;14.00;99.90
24250;DHT22;12379;49.820;8.648;2023-03-23T05:35:01;13.90;99.90
24250;DHT22;12379;49.820;8.648;2023-03-23T05:37:28;13.80;99.90
24250;DHT22;12379;49.820;8.648;2023-03-23T05:39:58;13.80;99.90
24250;DHT22;12379;49.820;8.648;2023-03-23T05:42:26;13.80;99.90
24250;DHT22;12379;49.820;8.648;2023-03-23T05:44:52;13.80;99.90
24250;DHT22;12379;49.820;8.648;2023-03-23T05:47:18;13.80;99.90
24250;DHT22;12379;49.820;8.648;2023-03-23T05:49:43;13.90;99.90
24250;DHT22;12379;49.820;8.648;2023-03-23T05:52:09;13.90;99.90
24250;DHT22;12379;49.820;8.648;2023-03-23T05:54:35;13.90;99.90
24250;DHT22;12379;49.820;8.648;2023-03-23T05:57:01;13.80;99.90
24250;DHT22;12379;49.820;8.648;2023-03-23T05:59:27;13.80;99.90
24250;DHT22;12379;49.820;8.648;2023-03-23T06:01:52;13.80;99.90
24250;DHT22;12379;49.820;8.648;2023-03-23T06:04:22;13.80;99.90
24250;DHT22;12379;49.820;8.648;2023-03-23T06:06:50;13.80;99.90
24250;DHT22;12379;49.820;8.648;2023-03-23T06:09:17;13.80;99.90
24250;DHT22;12379;49.820;8.648;2023-03-23T06:11:43;13.80;99.90
24250;DHT22;12379;49.820;8.648;2023-03-23T06:14:08;13.80;99.90
24250;DHT22;12379;49.820;8.648;2023-03-23T06:16:34;13.80;99.90
24250;DHT22;12379;49.820;8.648;2023-03-23T06:19:00;13.80;99.90
24250;DHT22;12379;49.820;8.648;2023-03-23T06:21:26;13.80;99.90
24250;DHT22;12379;49.820;8.648;2023-03-23T06:23:52;13.80;99.90
24250;DHT22;12379;49.820;8.648;2023-03-23T06:26:19;13.60;99.90
24250;DHT22;12379;49.820;8.648;2023-03-23T06:28:45;13.50;99.90
24250;DHT22;12379;49.820;8.648;2023-03-23T06:31:11;13.60;99.90
24250;DHT22;12379;49.820;8.648;2023-03-23T06:33:37;13.50;99.90
24250;DHT22;12379;49.820;8.648;2023-03-23T06:36:03;13.50;99.90
24250;DHT22;12379;49.820;8.648;2023-03-23T06:38:30;13.40;99.90
24250;DHT22;12379;49.820;8.648;2023-03-23T06:40:55;13.40;99.90
24250;DHT22;12379;49.820;8.648;2023-03-23T06:43:22;13.40;99.90
24250;DHT22;12379;49.820;8.648;2023-03-23T06:45:48;13.40;99.90
24250;DHT22;12379;49.820;8.648;2023-03-23T06:48:14;13.30;99.90
24250;DHT22;12379;49.820;8.648;2023-03-23T06:50:43;13.30;99.90
24250;DHT22;12379;49.820;8.648;2023-03-23T06:53:09;13.30;99.90
24250;DHT22;12379;49.820;8.648;2023-03-23T06:55:35;13.10;99.90
24250;DHT22;12379;49.820;8.648;2023-03-23T06:58:02;13.10;99.90
24250;DHT22;12379;49.820;8.648;2023-03-23T07:00:27;13.10;99.90
24250;DHT22;12379;49.820;8.648;2023-03-23T07:02:54;13.10;99.90
24250;DHT22;12379;49.820;8.648;2023-03-23T07:05:20;13.10;99.90
24250;DHT22;12379;49.820;8.648;2023-03-23T07:07:46;13.10;99.90
24250;DHT22;12379;49.820;8.648;2023-03-23T07:10:11;13.10;99.90
24250;DHT22;12379;49.820;8.648;2023-03-23T07:12:37;13.20;99.90
24250;DHT22;12379;49.820;8.648;2023-03-23T07:15:04;13.40;99.90
24250;DHT22;12379;49.820;8.648;2023-03-23T07:17:30;13.50;99.90
24250;DHT22;12379;49.820;8.648;2023-03-23T07:19:57;13.50;99.90
24250;DHT22;12379;49.820;8.648;2023-03-23T07:22:22;13.60;99.90
24250;DHT22;12379;49.820;8.648;2023-03-23T07:24:48;13.70;99.90
24250;DHT22;12379;49.820;8.648;2023-03-23T07:27:13;13.80;99.90
24250;DHT22;12379;49.820;8.648;2023-03-23T07:29:39;13.80;99.90
24250;DHT22;12379;49.820;8.648;2023-03-23T07:32:08;13.80;99.90
24250;DHT22;12379;49.820;8.648;2023-03-23T07:34:35;13.80;99.90
24250;DHT22;12379;49.820;8.648;2023-03-23T07:37:02;13.60;99.90
24250;DHT22;12379;49.820;8.648;2023-03-23T07:39:28;13.60;99.90
24250;DHT22;12379;49.820;8.648;2023-03-23T07:41:54;13.70;99.90
24250;DHT22;12379;49.820;8.648;2023-03-23T07:44:19;13.50;99.90
24250;DHT22;12379;49.820;8.648;2023-03-23T07:46:45;13.50;99.90
24250;DHT22;12379;49.820;8.648;2023-03-23T07:49:11;13.50;99.90
24250;DHT22;12379;49.820;8.648;2023-03-23T07:51:36;13.40;99.90
24250;DHT22;12379;49.820;8.648;2023-03-23T07:54:05;13.40;99.90
24250;DHT22;12379;49.820;8.648;2023-03-23T07:56:33;13.50;99.90
24250;DHT22;12379;49.820;8.648;2023-03-23T07:58:59;13.50;99.90
24250;DHT22;12379;49.820;8.648;2023-03-23T08:01:26;13.60;99.90
24250;DHT22;12379;49.820;8.648;2023-03-23T08:03:52;13.50;99.90
24250;DHT22;12379;49.820;8.648;2023-03-23T08:06:20;13.50;99.90
24250;DHT22;12379;49.820;8.648;2023-03-23T08:08:46;13.50;99.90
24250;DHT22;12379;49.820;8.648;2023-03-23T08:11:12;13.60;99.90
24250;DHT22;12379;49.820;8.648;2023-03-23T08:13:41;13.50;99.90
24250;DHT22;12379;49.820;8.648;2023-03-23T08:16:07;13.50;99.90
24250;DHT22;12379;49.820;8.648;2023-03-23T08:18:37;13.60;99.90
24250;DHT22;12379;49.820;8.648;2023-03-23T08:21:05;13.50;99.90
24250;DHT22;12379;49.820;8.648;2023-03-23T08:23:32;13.50;99.90
24250;DHT22;12379;49.820;8.648;2023-03-23T08:25:58;13.60;99.90
24250;DHT22;12379;49.820;8.648;2023-03-23T08:28:25;13.60;99.90
24250;DHT22;12379;49.820;8.648;2023-03-23T08:30:51;13.60;99.90
24250;DHT22;12379;49.820;8.648;2023-03-23T08:33:17;13.50;99.90
24250;DHT22;12379;49.820;8.648;2023-03-23T08:35:42;13.70;99.90
24250;DHT22;12379;49.820;8.648;2023-03-23T08:38:12;13.80;99.90
24250;DHT22;12379;49.820;8.648;2023-03-23T08:40:39;13.70;99.90
24250;DHT22;12379;49.820;8.648;2023-03-23T08:43:05;13.70;99.90
24250;DHT22;12379;49.820;8.648;2023-03-23T08:45:30;13.60;99.90
24250;DHT22;12379;49.820;8.648;2023-03-23T08:47:56;13.60;99.90
24250;DHT22;12379;49.820;8.648;2023-03-23T08:50:28;13.50;99.90
24250;DHT22;12379;49.820;8.648;2023-03-23T08:52:55;13.60;99.90
24250;DHT22;12379;49.820;8.648;2023-03-23T08:55:22;13.60;99.90
24250;DHT22;12379;49.820;8.648;2023-03-23T08:57:48;13.40;99.90
24250;DHT22;12379;49.820;8.648;2023-03-23T09:00:16;13.60;99.90
24250;DHT22;12379;49.820;8.648;2023-03-23T09:02:48;13.60;99.90
24250;DHT22;12379;49.820;8.648;2023-03-23T09:05:19;13.50;99.90
24250;DHT22;12379;49.820;8.648;2023-03-23T09:07:47;13.50;99.90
24250;DHT22;12379;49.820;8.648;2023-03-23T09:10:14;13.60;99.90
24250;DHT22;12379;49.820;8.648;2023-03-23T09:12:41;13.50;99.90
24250;DHT22;12379;49.820;8.648;2023-03-23T09:15:08;13.50;99.90
24250;DHT22;12379;49.820;8.648;2023-03-23T09:17:37;13.70;99.90
24250;DHT22;12379;49.820;8.648;2023-03-23T09:20:05;13.60;99.90
24250;DHT22;12379;49.820;8.648;2023-03-23T09:22:45;13.60;99.90
24250;DHT22;12379;49.820;8.648;2023-03-23T09:25:13;13.60;99.90
24250;DHT22;12379;49.820;8.648;2023-03-23T09:27:40;13.70;99.90
24250;DHT22;12379;49.820;8.648;2023-03-23T09:30:08;13.80;99.90
24250;DHT22;12379;49.820;8.648;2023-03-23T09:32:36;13.80;99.90
24250;DHT22;12379;49.820;8.648;2023-03-23T09:35:02;13.90;99.90
24250;DHT22;12379;49.820;8.648;2023-03-23T09:37:29;13.90;99.90
24250;DHT22;12379;49.820;8.648;2023-03-23T09:39:55;13.90;99.90
24250;DHT22;12379;49.820;8.648;2023-03-23T09:43:01;13.90;99.90
24250;DHT22;12379;49.820;8.648;2023-03-23T09:45:56;14.10;99.90
24250;DHT22;12379;49.820;8.648;2023-03-23T09:48:41;14.30;99.90
24250;DHT22;12379;49.820;8.648;2023-03-23T09:53:41;14.60;99.90
24250;DHT22;12379;49.820;8.648;2023-03-23T09:56:13;14.70;99.90
24250;DHT22;12379;49.820;8.648;2023-03-23T10:01:31;14.60;99.90
24250;DHT22;12379;49.820;8.648;2023-03-23T10:04:12;14.50;99.90
24250;DHT22;12379;49.820;8.648;2023-03-23T10:06:39;14.50;99.90
24250;DHT22;12379;49.820;8.648;2023-03-23T10:09:06;14.60;99.90
24250;DHT22;12379;49.820;8.648;2023-03-23T10:11:56;14.70;99.90
24250;DHT22;12379;49.820;8.648;2023-03-23T10:14:31;14.70;99.90
24250;DHT22;12379;49.820;8.648;2023-03-23T10:22:33;14.90;99.90
24250;DHT22;12379;49.820;8.648;2023-03-23T10:25:14;14.60;99.90
24250;DHT22;12379;49.820;8.648;2023-03-23T10:27:59;14.60;99.90
24250;DHT22;12379;49.820;8.648;2023-03-23T10:30:36;14.60;99.90
24250;DHT22;12379;49.820;8.648;2023-03-23T10:33:18;14.60;99.90
24250;DHT22;12379;49.820;8.648;2023-03-23T10:35:51;14.50;99.90
24250;DHT22;12379;49.820;8.648;2023-03-23T10:38:24;14.70;99.90
24250;DHT22;12379;49.820;8.648;2023-03-23T10:40:56;14.60;99.90
24250;DHT22;12379;49.820;8.648;2023-03-23T10:43:24;14.70;99.90
24250;DHT22;12379;49.820;8.648;2023-03-23T10:46:00;14.50;99.90
24250;DHT22;12379;49.820;8.648;2023-03-23T10:48:35;14.40;99.90
24250;DHT22;12379;49.820;8.648;2023-03-23T10:51:05;14.10;99.90
24250;DHT22;12379;49.820;8.648;2023-03-23T10:53:37;14.00;99.90
24250;DHT22;12379;49.820;8.648;2023-03-23T10:56:04;14.00;99.90
24250;DHT22;12379;49.820;8.648;2023-03-23T10:58:32;14.10;99.90
24250;DHT22;12379;49.820;8.648;2023-03-23T11:01:00;14.10;99.90
24250;DHT22;12379;49.820;8.648;2023-03-23T11:03:40;14.00;99.90
24250;DHT22;12379;49.820;8.648;2023-03-23T11:06:07;14.00;99.90
24250;DHT22;12379;49.820;8.648;2023-03-23T11:08:49;14.00;99.90
24250;DHT22;12379;49.820;8.648;2023-03-23T11:11:28;14.00;99.90
24250;DHT22;12379;49.820;8.648;2023-03-23T11:14:01;14.10;99.90
24250;DHT22;12379;49.820;8.648;2023-03-23T11:16:29;14.20;99.90
24250;DHT22;12379;49.820;8.648;2023-03-23T11:19:10;14.30;99.90
24250;DHT22;12379;49.820;8.648;2023-03-23T11:21:37;14.50;99.90
24250;DHT22;12379;49.820;8.648;2023-03-23T11:24:04;14.60;99.90
24250;DHT22;12379;49.820;8.648;2023-03-23T11:26:32;14.70;99.90
24250;DHT22;12379;49.820;8.648;2023-03-23T11:29:18;14.80;99.90
24250;DHT22;12379;49.820;8.648;2023-03-23T11:32:10;14.80;99.90
24250;DHT22;12379;49.820;8.648;2023-03-23T11:34:42;14.70;99.90
24250;DHT22;12379;49.820;8.648;2023-03-23T11:37:13;14.70;99.90
24250;DHT22;12379;49.820;8.648;2023-03-23T11:40:14;14.70;99.90
24250;DHT22;12379;49.820;8.648;2023-03-23T11:42:44;14.90;99.90
24250;DHT22;12379;49.820;8.648;2023-03-23T11:50:52;14.60;99.90
24250;DHT22;12379;49.820;8.648;2023-03-23T11:53:31;14.70;99.90
24250;DHT22;12379;49.820;8.648;2023-03-23T11:56:19;14.70;99.90
24250;DHT22;12379;49.820;8.648;2023-03-23T11:58:48;14.60;99.90
24250;DHT22;12379;49.820;8.648;2023-03-23T12:01:56;14.60;99.90
24250;DHT22;12379;49.820;8.648;2023-03-23T12:04:37;14.40;99.90
24250;DHT22;12379;49.820;8.648;2023-03-23T12:10:14;14.50;99.90
24250;DHT22;12379;49.820;8.648;2023-03-23T12:15:43;14.30;99.90
24250;DHT22;12379;49.820;8.648;2023-03-23T12:18:36;14.10;99.90
24250;DHT22;12379;49.820;8.648;2023-03-23T12:21:25;14.20;99.90
24250;DHT22;12379;49.820;8.648;2023-03-23T12:24:06;14.20;99.90
24250;DHT22;12379;49.820;8.648;2023-03-23T12:35:12;14.40;99.90
24250;DHT22;12379;49.820;8.648;2023-03-23T12:43:47;15.00;99.90
24250;DHT22;12379;49.820;8.648;2023-03-23T12:51:33;15.80;99.90
24250;DHT22;12379;49.820;8.648;2023-03-23T12:57:34;16.10;99.90
24250;DHT22;12379;49.820;8.648;2023-03-23T13:00:20;16.30;99.90
24250;DHT22;12379;49.820;8.648;2023-03-23T13:03:04;16.20;99.90
24250;DHT22;12379;49.820;8.648;2023-03-23T13:05:52;16.00;99.90
24250;DHT22;12379;49.820;8.648;2023-03-23T13:08:31;15.70;99.90
24250;DHT22;12379;49.820;8.648;2023-03-23T13:11:02;15.60;99.90
24250;DHT22;12379;49.820;8.648;2023-03-23T13:13:54;15.40;99.90
24250;DHT22;12379;49.820;8.648;2023-03-23T13:22:02;15.40;99.90
24250;DHT22;12379;49.820;8.648;2023-03-23T13:24:32;15.20;99.90
24250;DHT22;12379;49.820;8.648;2023-03-23T13:27:00;15.10;99.90
24250;DHT22;12379;49.820;8.648;2023-03-23T13:29:27;15.10;99.90
24250;DHT22;12379;49.820;8.648;2023-03-23T13:32:06;15.30;99.90
24250;DHT22;12379;49.820;8.648;2023-03-23T13:34:32;15.20;99.90
24250;DHT22;12379;49.820;8.648;2023-03-23T13:37:03;15.10;99.90
24250;DHT22;12379;49.820;8.648;2023-03-23T13:39:37;15.10;99.90
24250;DHT22;12379;49.820;8.648;2023-03-23T13:44:56;15.00;99.90
24250;DHT22;12379;49.820;8.648;2023-03-23T13:50:00;15.10;99.90
24250;DHT22;12379;49.820;8.648;2023-03-23T13:55:30;15.20;99.90
24250;DHT22;12379;49.820;8.648;2023-03-23T13:57:58;15.40;99.90
24250;DHT22;12379;49.820;8.648;2023-03-23T14:00:33;15.60;99.90
24250;DHT22;12379;49.820;8.648;2023-03-23T14:05:39;15.80;99.90
24250;DHT22;12379;49.820;8.648;2023-03-23T14:10:38;15.80;99.90
24250;DHT22;12379;49.820;8.648;2023-03-23T14:13:06;15.60;99.90
24250;DHT22;12379;49.820;8.648;2023-03-23T14:15:44;15.50;99.90
24250;DHT22;12379;49.820;8.648;2023-03-23T14:18:19;15.30;99.90
24250;DHT22;12379;49.820;8.648;2023-03-23T14:20:47;15.30;99.90
24250;DHT22;12379;49.820;8.648;2023-03-23T14:23:18;15.30;99.90
24250;DHT22;12379;49.820;8.648;2023-03-23T14:25:44;15.20;99.90
24250;DHT22;12379;49.820;8.648;2023-03-23T14:28:20;15.20;99.90
24250;DHT22;12379;49.820;8.648;2023-03-23T14:30:52;15.40;99.90
24250;DHT22;12379;49.820;8.648;2023-03-23T14:33:19;15.40;99.90
24250;DHT22;12379;49.820;8.648;2023-03-23T14:35:45;15.50;99.90
24250;DHT22;12379;49.820;8.648;2023-03-23T14:38:20;15.50;99.90
24250;DHT22;12379;49.820;8.648;2023-03-23T14:40:48;15.30;99.90
24250;DHT22;12379;49.820;8.648;2023-03-23T14:43:17;15.30;99.90
24250;DHT22;12379;49.820;8.648;2023-03-23T14:45:43;15.20;99.90
24250;DHT22;12379;49.820;8.648;2023-03-23T14:48:13;15.30;99.90
24250;DHT22;12379;49.820;8.648;2023-03-23T14:50:42;15.50;99.90
24250;DHT22;12379;49.820;8.648;2023-03-23T14:53:30;15.50;99.90
24250;DHT22;12379;49.820;8.648;2023-03-23T14:56:10;15.40;99.90
24250;DHT22;12379;49.820;8.648;2023-03-23T14:58:37;15.30;99.90
24250;DHT22;12379;49.820;8.648;2023-03-23T15:01:17;15.30;99.90
24250;DHT22;12379;49.820;8.648;2023-03-23T15:03:50;15.30;99.90
24250;DHT22;12379;49.820;8.648;2023-03-23T15:06:19;15.30;99.90
24250;DHT22;12379;49.820;8.648;2023-03-23T15:08:47;15.30;99.90
24250;DHT22;12379;49.820;8.648;2023-03-23T15:13:47;15.40;99.90
24250;DHT22;12379;49.820;8.648;2023-03-23T15:16:19;15.30;99.90
24250;DHT22;12379;49.820;8.648;2023-03-23T15:18:58;15.30;99.90
24250;DHT22;12379;49.820;8.648;2023-03-23T15:21:29;15.40;99.90
24250;DHT22;12379;49.820;8.648;2023-03-23T15:23:58;15.50;99.90
24250;DHT22;12379;49.820;8.648;2023-03-23T15:26:43;15.70;99.90
24250;DHT22;12379;49.820;8.648;2023-03-23T15:29:16;15.80;99.90
24250;DHT22;12379;49.820;8.648;2023-03-23T15:31:45;15.80;99.90
24250;DHT22;12379;49.820;8.648;2023-03-23T15:34:24;15.60;99.90
24250;DHT22;12379;49.820;8.648;2023-03-23T15:37:06;15.70;99.90
24250;DHT22;12379;49.820;8.648;2023-03-23T15:39:32;15.80;99.90
24250;DHT22;12379;49.820;8.648;2023-03-23T15:41:59;15.70;99.90
24250;DHT22;12379;49.820;8.648;2023-03-23T15:44:30;15.70;99.90
24250;DHT22;12379;49.820;8.648;2023-03-23T15:47:16;15.80;99.90
24250;DHT22;12379;49.820;8.648;2023-03-23T15:49:46;15.60;99.90
24250;DHT22;12379;49.820;8.648;2023-03-23T15:52:15;15.40;99.90
24250;DHT22;12379;49.820;8.648;2023-03-23T15:54:48;15.30;99.90
24250;DHT22;12379;49.820;8.648;2023-03-23T15:57:14;15.30;99.90
24250;DHT22;12379;49.820;8.648;2023-03-23T15:59:40;15.20;99.90
24250;DHT22;12379;49.820;8.648;2023-03-23T16:02:21;15.20;99.90
24250;DHT22;12379;49.820;8.648;2023-03-23T16:04:49;15.20;99.90
24250;DHT22;12379;49.820;8.648;2023-03-23T16:07:16;15.20;99.90
24250;DHT22;12379;49.820;8.648;2023-03-23T16:09:42;15.30;99.90
24250;DHT22;12379;49.820;8.648;2023-03-23T16:12:12;15.10;99.90
24250;DHT22;12379;49.820;8.648;2023-03-23T16:14:38;15.10;99.90
24250;DHT22;12379;49.820;8.648;2023-03-23T16:17:04;15.00;99.90
24250;DHT22;12379;49.820;8.648;2023-03-23T16:19:30;14.90;99.90
24250;DHT22;12379;49.820;8.648;2023-03-23T16:21:56;14.90;99.90
24250;DHT22;12379;49.820;8.648;2023-03-23T16:24:22;14.90;99.90
24250;DHT22;12379;49.820;8.648;2023-03-23T16:26:47;14.90;99.90
24250;DHT22;12379;49.820;8.648;2023-03-23T16:29:15;14.90;99.90
24250;DHT22;12379;49.820;8.648;2023-03-23T16:31:40;14.90;99.90
24250;DHT22;12379;49.820;8.648;2023-03-23T16:34:07;14.90;99.90
24250;DHT22;12379;49.820;8.648;2023-03-23T16:36:33;14.80;99.90
24250;DHT22;12379;49.820;8.648;2023-03-23T16:38:59;14.80;99.90
24250;DHT22;12379;49.820;8.648;2023-03-23T16:41:24;14.70;99.90
24250;DHT22;12379;49.820;8.648;2023-03-23T16:43:50;14.60;99.90
24250;DHT22;12379;49.820;8.648;2023-03-23T16:46:16;14.70;99.90
24250;DHT22;12379;49.820;8.648;2023-03-23T16:48:42;14.70;99.90
24250;DHT22;12379;49.820;8.648;2023-03-23T16:51:07;14.60;99.90
24250;DHT22;12379;49.820;8.648;2023-03-23T16:53:33;14.50;99.90
24250;DHT22;12379;49.820;8.648;2023-03-23T16:56:00;14.50;99.90
24250;DHT22;12379;49.820;8.648;2023-03-23T16:58:25;14.40;99.90
24250;DHT22;12379;49.820;8.648;2023-03-23T17:00:51;14.40;99.90
24250;DHT22;12379;49.820;8.648;2023-03-23T17:03:19;14.40;99.90
24250;DHT22;12379;49.820;8.648;2023-03-23T17:05:47;14.30;99.90
24250;DHT22;12379;49.820;8.648;2023-03-23T17:08:13;14.30;99.90
24250;DHT22;12379;49.820;8.648;2023-03-23T17:10:39;14.30;99.90
24250;DHT22;12379;49.820;8.648;2023-03-23T17:13:06;14.30;99.90
24250;DHT22;12379;49.820;8.648;2023-03-23T17:15:31;14.40;99.90